createdAt,value
2019-05-23T00:01:01.683Z,14.10
2019-05-23T00:03:38.840Z,14.10
2019-05-23T00:06:11.218Z,14.10
2019-05-23T00:08:41.156Z,14.10
2019-05-23T00:11:32.221Z,14.00
2019-05-23T00:14:06.926Z,14.00
2019-05-23T00:16:36.599Z,13.90
2019-05-23T00:19:06.535Z,13.90
2019-05-23T00:21:37.303Z,13.90
2019-05-23T00:24:08.219Z,13.90
2019-05-23T00:26:39.386Z,13.80
2019-05-23T00:29:10.908Z,13.70
2019-05-23T00:31:58.520Z,13.70
2019-05-23T00:34:29.282Z,13.60
2019-05-23T00:36:59.642Z,13.70
2019-05-23T00:39:29.601Z,13.60
2019-05-23T00:41:58.691Z,13.60
2019-05-23T00:44:27.814Z,13.80
2019-05-23T00:46:56.886Z,13.80
2019-05-23T00:49:28.331Z,13.70
2019-05-23T00:51:57.404Z,13.70
2019-05-23T00:54:26.945Z,13.70
2019-05-23T00:56:57.018Z,13.80
2019-05-23T00:59:27.710Z,13.80
2019-05-23T01:01:57.820Z,13.70
2019-05-23T01:04:27.897Z,13.60
2019-05-23T01:06:57.613Z,13.60
2019-05-23T01:09:27.432Z,13.60
2019-05-23T01:11:56.758Z,13.70
2019-05-23T01:14:26.240Z,13.40
2019-05-23T01:16:55.441Z,13.30
2019-05-23T01:19:25.221Z,13.30
2019-05-23T01:22:01.306Z,13.30
2019-05-23T01:24:37.266Z,13.30
2019-05-23T01:27:07.156Z,13.40
2019-05-23T01:29:49.515Z,13.30
2019-05-23T01:32:30.509Z,13.30
2019-05-23T01:34:59.947Z,13.40
2019-05-23T01:37:28.991Z,13.40
2019-05-23T01:39:58.190Z,13.30
2019-05-23T01:42:28.228Z,13.20
2019-05-23T01:44:58.434Z,13.20
2019-05-23T01:47:28.234Z,13.20
2019-05-23T01:49:57.931Z,13.20
2019-05-23T01:52:27.574Z,13.10
2019-05-23T01:54:56.933Z,13.30
2019-05-23T01:57:26.369Z,13.30
2019-05-23T02:00:08.818Z,13.20
2019-05-23T02:02:29.189Z,13.10
2019-05-23T02:04:58.413Z,13.00
2019-05-23T02:07:29.249Z,13.00
2019-05-23T02:09:58.498Z,13.10
2019-05-23T02:12:27.446Z,13.10
2019-05-23T02:14:57.274Z,13.00
2019-05-23T02:17:26.247Z,13.00
2019-05-23T02:19:56.127Z,12.70
2019-05-23T02:22:25.038Z,12.60
2019-05-23T02:24:54.538Z,12.60
2019-05-23T02:27:25.177Z,12.50
2019-05-23T02:29:54.050Z,12.50
2019-05-23T02:32:23.497Z,12.50
2019-05-23T02:34:53.049Z,12.50
2019-05-23T02:37:41.444Z,12.40
2019-05-23T02:40:18.362Z,12.40
2019-05-23T02:42:57.506Z,12.40
2019-05-23T02:45:33.946Z,12.20
2019-05-23T02:48:05.191Z,12.20
2019-05-23T02:50:41.742Z,12.30
2019-05-23T02:53:14.339Z,12.30
2019-05-23T02:55:43.604Z,12.40
2019-05-23T02:58:31.486Z,12.50
2019-05-23T03:01:48.859Z,12.30
2019-05-23T03:04:21.083Z,12.10
2019-05-23T03:06:51.691Z,12.00
2019-05-23T03:09:23.400Z,12.00
2019-05-23T03:11:57.114Z,11.90
2019-05-23T03:14:27.794Z,11.90
2019-05-23T03:16:59.752Z,12.00
2019-05-23T03:19:38.998Z,12.10
2019-05-23T03:22:39.850Z,12.00
2019-05-23T03:25:22.749Z,11.90
2019-05-23T03:27:54.155Z,11.80
2019-05-23T03:30:27.677Z,11.70
2019-05-23T03:33:01.296Z,11.60
2019-05-23T03:35:34.655Z,11.60
2019-05-23T03:38:04.016Z,11.50
2019-05-23T03:40:33.487Z,11.50
2019-05-23T03:43:02.425Z,11.50
2019-05-23T03:45:33.188Z,11.40
2019-05-23T03:48:02.992Z,11.50
2019-05-23T03:50:32.618Z,11.40
2019-05-23T03:53:02.076Z,11.40
2019-05-23T03:55:32.786Z,11.50
2019-05-23T03:58:02.715Z,11.50
2019-05-23T04:00:37.242Z,11.50
2019-05-23T04:03:07.599Z,11.40
2019-05-23T04:05:37.378Z,11.40
2019-05-23T04:08:07.640Z,11.50
2019-05-23T04:10:37.276Z,11.40
2019-05-23T04:13:06.981Z,11.40
2019-05-23T04:15:36.467Z,11.30
2019-05-23T04:18:06.168Z,11.30
2019-05-23T04:20:35.167Z,11.20
2019-05-23T04:23:05.655Z,11.20
2019-05-23T04:25:35.409Z,11.30
2019-05-23T04:28:05.215Z,11.40
2019-05-23T04:30:34.566Z,11.30
2019-05-23T04:33:03.973Z,11.40
2019-05-23T04:35:33.069Z,11.40
2019-05-23T04:38:02.360Z,11.50
2019-05-23T04:40:31.829Z,11.50
2019-05-23T04:43:01.239Z,11.50
2019-05-23T04:45:31.827Z,11.50
2019-05-23T04:48:01.148Z,11.30
2019-05-23T04:50:30.720Z,11.40
2019-05-23T04:53:00.282Z,11.40
2019-05-23T04:55:29.778Z,11.60
2019-05-23T04:58:03.686Z,11.80
2019-05-23T05:00:31.103Z,11.80
2019-05-23T05:03:00.486Z,11.80
2019-05-23T05:05:30.078Z,11.90
2019-05-23T05:07:59.070Z,11.90
2019-05-23T05:10:29.084Z,11.90
2019-05-23T05:12:58.326Z,11.90
2019-05-23T05:15:27.570Z,12.00
2019-05-23T05:17:57.122Z,12.10
2019-05-23T05:20:26.597Z,12.10
2019-05-23T05:22:55.920Z,12.20
2019-05-23T05:25:25.057Z,12.10
2019-05-23T05:27:54.027Z,12.20
2019-05-23T05:30:23.267Z,12.20
2019-05-23T05:32:52.546Z,12.20
2019-05-23T05:35:21.616Z,12.30
2019-05-23T05:37:50.754Z,12.40
2019-05-23T05:40:19.931Z,12.40
2019-05-23T05:42:49.215Z,12.40
2019-05-23T05:45:20.320Z,12.50
2019-05-23T05:47:49.657Z,12.50
2019-05-23T05:50:19.582Z,12.60
2019-05-23T05:52:48.524Z,12.90
2019-05-23T05:55:17.487Z,12.90
2019-05-23T05:57:46.514Z,13.10
2019-05-23T06:00:48.648Z,13.30
2019-05-23T06:03:18.219Z,13.50
2019-05-23T06:06:05.583Z,13.70
2019-05-23T06:08:37.187Z,13.80
2019-05-23T06:11:07.060Z,13.70
2019-05-23T06:13:36.196Z,13.90
2019-05-23T06:16:05.283Z,13.90
2019-05-23T06:18:34.751Z,13.90
2019-05-23T06:21:05.185Z,14.10
2019-05-23T06:23:34.666Z,14.10
2019-05-23T06:26:03.645Z,14.40
2019-05-23T06:28:33.038Z,14.70
2019-05-23T06:31:02.464Z,15.00
2019-05-23T06:33:32.115Z,15.20
2019-05-23T06:36:01.722Z,15.40
2019-05-23T06:38:31.308Z,15.50
2019-05-23T06:41:01.660Z,15.70
2019-05-23T06:43:31.730Z,15.60
2019-05-23T06:46:01.514Z,16.00
2019-05-23T06:48:31.114Z,16.60
2019-05-23T06:51:00.234Z,17.50
2019-05-23T06:53:29.439Z,18.00
2019-05-23T06:55:58.904Z,18.10
2019-05-23T06:58:28.275Z,18.90
2019-05-23T07:00:57.745Z,19.80
2019-05-23T07:03:41.168Z,20.30
2019-05-23T07:05:58.813Z,20.80
2019-05-23T07:08:30.189Z,20.90
2019-05-23T07:10:59.680Z,21.90
2019-05-23T07:13:29.698Z,22.30
2019-05-23T07:15:58.709Z,22.80
2019-05-23T07:18:28.406Z,22.80
2019-05-23T07:20:57.562Z,23.50
2019-05-23T07:23:27.029Z,24.10
2019-05-23T07:25:56.620Z,24.00
2019-05-23T07:28:25.796Z,24.20
2019-05-23T07:30:56.279Z,23.80
2019-05-23T07:33:25.884Z,23.80
2019-05-23T07:35:55.053Z,24.00
2019-05-23T07:38:24.301Z,24.40
2019-05-23T07:40:54.761Z,25.30
2019-05-23T07:43:24.932Z,24.90
2019-05-23T07:45:56.551Z,25.50
2019-05-23T07:48:26.353Z,24.80
2019-05-23T07:50:56.239Z,24.90
2019-05-23T07:53:43.983Z,24.70
2019-05-23T07:56:15.315Z,25.80
2019-05-23T07:58:44.405Z,26.40
2019-05-23T08:01:15.249Z,27.30
2019-05-23T08:03:45.272Z,27.20
2019-05-23T08:06:14.595Z,27.70
2019-05-23T08:08:43.971Z,28.30
2019-05-23T08:11:13.337Z,28.70
2019-05-23T08:13:42.885Z,28.50
2019-05-23T08:16:13.096Z,28.50
2019-05-23T08:18:42.407Z,28.70
2019-05-23T08:21:11.626Z,28.80
2019-05-23T08:23:40.870Z,29.00
2019-05-23T08:26:10.864Z,28.80
2019-05-23T08:29:00.475Z,29.40
2019-05-23T08:31:11.459Z,30.50
2019-05-23T08:33:40.515Z,31.50
2019-05-23T08:36:11.054Z,30.90
2019-05-23T08:38:41.335Z,31.30
2019-05-23T08:41:11.884Z,30.80
2019-05-23T08:43:41.333Z,32.00
2019-05-23T08:46:11.740Z,33.00
2019-05-23T08:48:40.966Z,33.60
2019-05-23T08:51:10.685Z,34.00
2019-05-23T08:53:40.675Z,34.20
2019-05-23T08:56:18.439Z,34.90
2019-05-23T08:58:41.071Z,34.70
2019-05-23T09:01:11.457Z,34.40
2019-05-23T09:03:40.877Z,34.00
2019-05-23T09:06:10.323Z,34.70
2019-05-23T09:08:39.759Z,34.90
2019-05-23T09:11:09.341Z,34.30
2019-05-23T09:13:38.585Z,34.00
2019-05-23T09:16:09.769Z,35.30
2019-05-23T09:18:39.022Z,35.20
2019-05-23T09:21:08.313Z,35.20
2019-05-23T09:23:37.626Z,34.50
2019-05-23T09:26:06.847Z,35.40
2019-05-23T09:28:36.365Z,35.40
2019-05-23T09:31:05.765Z,35.50
2019-05-23T09:33:35.192Z,36.30
2019-05-23T09:36:05.049Z,36.80
2019-05-23T09:38:34.665Z,37.40
2019-05-23T09:41:04.287Z,35.10
2019-05-23T09:43:33.364Z,35.00
2019-05-23T09:46:02.669Z,35.00
2019-05-23T09:48:31.985Z,35.50
2019-05-23T09:51:01.280Z,35.30
2019-05-23T09:53:30.986Z,35.90
2019-05-23T09:56:00.272Z,36.30
2019-05-23T09:58:29.623Z,36.80
2019-05-23T10:00:58.852Z,37.80
2019-05-23T10:03:28.088Z,39.00
2019-05-23T10:05:57.356Z,38.50
2019-05-23T10:08:26.962Z,38.10
2019-05-23T10:10:56.605Z,38.40
2019-05-23T10:13:38.484Z,38.50
2019-05-23T10:16:05.794Z,38.30
2019-05-23T10:18:35.188Z,37.20
2019-05-23T10:21:04.678Z,37.10
2019-05-23T10:23:34.321Z,37.40
2019-05-23T10:26:04.097Z,35.80
2019-05-23T10:28:33.409Z,34.60
2019-05-23T10:31:04.302Z,34.60
2019-05-23T10:33:33.678Z,34.70
2019-05-23T10:36:02.823Z,35.20
2019-05-23T10:38:32.049Z,35.90
2019-05-23T10:41:01.537Z,37.00
2019-05-23T10:43:30.847Z,37.90
2019-05-23T10:46:00.330Z,37.30
2019-05-23T10:48:30.113Z,36.10
2019-05-23T10:50:59.402Z,37.10
2019-05-23T10:53:28.745Z,37.60
2019-05-23T10:55:57.982Z,37.90
2019-05-23T10:58:28.009Z,38.70
2019-05-23T11:00:57.983Z,39.50
2019-05-23T11:03:27.605Z,38.40
2019-05-23T11:05:57.081Z,38.40
2019-05-23T11:08:29.481Z,38.60
2019-05-23T11:10:57.545Z,37.20
2019-05-23T11:13:27.009Z,37.70
2019-05-23T11:15:56.465Z,37.80
2019-05-23T11:18:25.905Z,37.70
2019-05-23T11:20:55.182Z,36.60
2019-05-23T11:23:29.407Z,36.40
2019-05-23T11:26:01.139Z,36.50
2019-05-23T11:28:31.665Z,36.60
2019-05-23T11:31:01.706Z,37.50
2019-05-23T11:33:30.933Z,36.40
2019-05-23T11:36:00.455Z,36.10
2019-05-23T11:38:30.211Z,35.90
2019-05-23T11:40:59.430Z,36.30
2019-05-23T11:43:28.689Z,37.10
2019-05-23T11:46:02.213Z,36.60
2019-05-23T11:48:32.109Z,37.40
2019-05-23T11:51:01.396Z,38.20
2019-05-23T11:53:31.606Z,38.40
2019-05-23T11:56:00.988Z,37.60
2019-05-23T11:58:32.620Z,37.10
2019-05-23T12:01:42.244Z,35.80
2019-05-23T12:04:22.262Z,36.10
2019-05-23T12:06:56.626Z,36.80
2019-05-23T12:09:26.430Z,37.70
2019-05-23T12:11:55.600Z,37.10
2019-05-23T12:14:24.883Z,36.00
2019-05-23T12:16:55.707Z,34.90
2019-05-23T12:19:25.440Z,34.30
2019-05-23T12:21:55.080Z,34.40
2019-05-23T12:24:24.409Z,34.00
2019-05-23T12:26:53.903Z,35.10
2019-05-23T12:29:23.430Z,35.40
2019-05-23T12:31:52.829Z,35.90
2019-05-23T12:34:21.988Z,36.20
2019-05-23T12:36:51.316Z,35.20
2019-05-23T12:39:20.608Z,32.60
2019-05-23T12:41:49.577Z,32.00
2019-05-23T12:44:18.688Z,31.70
2019-05-23T12:46:47.632Z,32.00
2019-05-23T12:49:24.778Z,32.10
2019-05-23T12:51:55.040Z,32.60
2019-05-23T12:54:24.765Z,32.00
2019-05-23T12:56:53.619Z,32.60
2019-05-23T12:59:22.810Z,33.00
2019-05-23T13:01:53.480Z,31.90
2019-05-23T13:04:22.764Z,29.90
2019-05-23T13:06:52.166Z,30.30
2019-05-23T13:09:21.234Z,30.90
2019-05-23T13:11:50.262Z,30.70
2019-05-23T13:14:19.706Z,30.60
2019-05-23T13:16:48.782Z,30.30
2019-05-23T13:19:18.433Z,30.10
2019-05-23T13:21:47.491Z,29.70
2019-05-23T13:24:16.446Z,29.90
2019-05-23T13:26:45.480Z,29.90
2019-05-23T13:29:14.510Z,29.40
2019-05-23T13:31:43.551Z,29.40
2019-05-23T13:34:12.554Z,29.40
2019-05-23T13:36:41.380Z,29.20
2019-05-23T13:39:11.598Z,29.00
2019-05-23T13:41:40.503Z,28.80
2019-05-23T13:44:09.545Z,28.90
2019-05-23T13:46:38.543Z,29.00
2019-05-23T13:49:07.736Z,29.20
2019-05-23T13:51:37.542Z,29.00
2019-05-23T13:54:06.455Z,29.20
2019-05-23T13:56:35.394Z,29.00
2019-05-23T13:59:04.502Z,29.00
2019-05-23T14:01:33.431Z,28.80
2019-05-23T14:04:02.473Z,29.20
2019-05-23T14:06:31.494Z,28.70
2019-05-23T14:09:00.386Z,28.60
2019-05-23T14:11:29.646Z,28.40
2019-05-23T14:14:01.483Z,28.00
2019-05-23T14:16:31.179Z,27.60
2019-05-23T14:19:00.226Z,27.70
2019-05-23T14:21:35.031Z,27.60
2019-05-23T14:24:04.351Z,27.20
2019-05-23T14:26:39.333Z,27.60
2019-05-23T14:29:08.221Z,27.60
2019-05-23T14:31:43.952Z,28.00
2019-05-23T14:34:15.378Z,28.00
2019-05-23T14:37:02.609Z,27.80
2019-05-23T14:39:42.500Z,27.70
2019-05-23T14:42:28.631Z,27.80
2019-05-23T14:44:57.761Z,27.20
2019-05-23T14:47:41.396Z,27.00
2019-05-23T14:50:34.013Z,27.00
2019-05-23T14:53:03.361Z,27.30
2019-05-23T14:55:32.926Z,27.40
2019-05-23T14:58:01.766Z,27.30
2019-05-23T15:00:31.184Z,27.10
2019-05-23T15:03:00.118Z,26.90
2019-05-23T15:05:29.820Z,26.80
2019-05-23T15:07:58.779Z,26.80
2019-05-23T15:10:28.011Z,27.00
2019-05-23T15:12:56.990Z,27.00
2019-05-23T15:15:26.471Z,27.30
2019-05-23T15:17:55.413Z,27.20
2019-05-23T15:20:24.467Z,26.90
2019-05-23T15:22:53.454Z,27.00
2019-05-23T15:25:22.446Z,27.00
2019-05-23T15:27:51.506Z,26.50
2019-05-23T15:30:21.186Z,26.40
2019-05-23T15:32:50.192Z,26.50
2019-05-23T15:35:19.330Z,26.40
2019-05-23T15:37:48.294Z,26.40
2019-05-23T15:40:18.570Z,26.60
2019-05-23T15:42:47.591Z,26.70
2019-05-23T15:45:16.609Z,26.70
2019-05-23T15:47:45.910Z,26.50
2019-05-23T15:50:16.900Z,26.20
2019-05-23T15:52:54.510Z,25.90
2019-05-23T15:55:54.515Z,25.80
2019-05-23T15:58:35.440Z,26.00
2019-05-23T16:01:26.285Z,26.20
2019-05-23T16:04:01.458Z,25.80
2019-05-23T16:06:32.784Z,25.70
2019-05-23T16:09:02.304Z,25.70
2019-05-23T16:11:31.250Z,25.80
2019-05-23T16:14:00.284Z,25.80
2019-05-23T16:16:29.271Z,25.70
2019-05-23T16:18:58.397Z,25.60
2019-05-23T16:21:27.391Z,25.30
2019-05-23T16:23:56.351Z,25.20
2019-05-23T16:26:25.586Z,25.00
2019-05-23T16:28:54.622Z,25.00
2019-05-23T16:31:23.524Z,24.90
2019-05-23T16:33:52.578Z,24.90
2019-05-23T16:36:21.591Z,24.70
2019-05-23T16:38:50.544Z,24.60
2019-05-23T16:41:19.900Z,24.50
2019-05-23T16:43:48.880Z,24.30
2019-05-23T16:46:18.350Z,24.30
2019-05-23T16:48:47.753Z,24.50
2019-05-23T16:51:16.725Z,24.50
2019-05-23T16:53:46.010Z,24.40
2019-05-23T16:56:19.977Z,24.40
2019-05-23T16:59:07.638Z,24.20
2019-05-23T17:02:06.372Z,24.20
2019-05-23T17:04:39.814Z,24.10
2019-05-23T17:07:26.560Z,24.10
2019-05-23T17:10:09.361Z,23.90
2019-05-23T17:12:59.783Z,23.90
2019-05-23T17:15:53.986Z,23.90
2019-05-23T17:18:33.081Z,23.90
2019-05-23T17:21:17.604Z,23.80
2019-05-23T17:23:54.734Z,23.90
2019-05-23T17:26:52.362Z,23.80
2019-05-23T17:29:30.032Z,23.50
2019-05-23T17:32:03.538Z,23.70
2019-05-23T17:34:32.639Z,23.80
2019-05-23T17:37:01.871Z,23.80
2019-05-23T17:39:32.182Z,23.70
2019-05-23T17:42:01.180Z,23.50
2019-05-23T17:44:30.154Z,23.50
2019-05-23T17:46:59.303Z,23.40
2019-05-23T17:49:28.791Z,23.50
2019-05-23T17:51:57.701Z,23.70
2019-05-23T17:54:26.895Z,23.70
2019-05-23T17:56:55.957Z,23.70
2019-05-23T17:59:24.776Z,23.70
2019-05-23T18:01:54.303Z,23.50
2019-05-23T18:04:23.352Z,23.60
2019-05-23T18:06:52.893Z,23.40
2019-05-23T18:09:21.858Z,23.40
2019-05-23T18:11:51.546Z,23.30
2019-05-23T18:14:21.080Z,23.30
2019-05-23T18:16:50.247Z,23.20
2019-05-23T18:19:19.536Z,23.20
2019-05-23T18:21:48.691Z,23.10
2019-05-23T18:24:18.403Z,22.90
2019-05-23T18:26:47.401Z,22.80
2019-05-23T18:29:17.442Z,22.70
2019-05-23T18:31:46.732Z,22.60
2019-05-23T18:34:16.573Z,22.50
2019-05-23T18:36:46.168Z,22.40
2019-05-23T18:39:16.745Z,22.40
2019-05-23T18:42:06.570Z,22.40
2019-05-23T18:44:36.256Z,22.40
2019-05-23T18:47:09.923Z,22.20
2019-05-23T18:49:40.217Z,22.10
2019-05-23T18:52:10.002Z,22.00
2019-05-23T18:54:39.080Z,21.90
2019-05-23T18:57:08.900Z,21.70
2019-05-23T18:59:37.815Z,21.60
2019-05-23T19:02:07.273Z,21.60
2019-05-23T19:04:36.625Z,21.50
2019-05-23T19:07:07.314Z,21.40
2019-05-23T19:09:36.733Z,21.40
2019-05-23T19:12:06.326Z,21.40
2019-05-23T19:14:35.476Z,21.30
2019-05-23T19:17:05.255Z,21.30
2019-05-23T19:19:34.681Z,21.20
2019-05-23T19:22:04.932Z,21.00
2019-05-23T19:24:34.316Z,21.00
2019-05-23T19:27:03.508Z,20.80
2019-05-23T19:29:33.677Z,20.70
2019-05-23T19:32:04.274Z,20.70
2019-05-23T19:34:33.193Z,20.70
2019-05-23T19:37:03.440Z,20.60
2019-05-23T19:39:33.124Z,20.50
2019-05-23T19:42:02.498Z,20.40
2019-05-23T19:44:31.499Z,20.40
2019-05-23T19:47:00.530Z,20.30
2019-05-23T19:49:29.531Z,20.20
2019-05-23T19:51:59.767Z,20.10
2019-05-23T19:54:29.034Z,19.90
2019-05-23T19:56:58.054Z,19.80
2019-05-23T19:59:26.943Z,19.80
2019-05-23T20:02:27.155Z,19.70
2019-05-23T20:05:03.875Z,19.60
2019-05-23T20:07:32.799Z,19.60
2019-05-23T20:10:02.412Z,19.50
2019-05-23T20:12:32.049Z,19.50
2019-05-23T20:15:00.970Z,19.50
2019-05-23T20:17:30.052Z,19.50
2019-05-23T20:19:59.147Z,19.50
2019-05-23T20:22:28.600Z,19.50
2019-05-23T20:24:57.607Z,19.40
2019-05-23T20:27:26.923Z,19.30
2019-05-23T20:29:55.821Z,19.30
2019-05-23T20:32:24.988Z,19.20
2019-05-23T20:34:54.143Z,19.10
2019-05-23T20:37:25.011Z,19.10
2019-05-23T20:39:54.127Z,19.00
2019-05-23T20:42:23.225Z,19.00
2019-05-23T20:44:52.105Z,18.90
2019-05-23T20:47:36.176Z,18.80
2019-05-23T20:50:06.374Z,18.80
2019-05-23T20:52:38.848Z,18.70
2019-05-23T20:55:09.632Z,18.70
2019-05-23T20:57:40.068Z,18.60
2019-05-23T21:00:12.441Z,18.60
2019-05-23T21:02:44.844Z,18.60
2019-05-23T21:05:17.220Z,18.60
2019-05-23T21:07:46.542Z,18.50
2019-05-23T21:10:30.433Z,18.40
2019-05-23T21:13:00.877Z,18.40
2019-05-23T21:15:31.436Z,18.40
2019-05-23T21:18:00.796Z,18.40
2019-05-23T21:20:31.789Z,18.40
2019-05-23T21:23:03.897Z,18.30
2019-05-23T21:25:34.743Z,18.20
2019-05-23T21:28:04.838Z,18.10
2019-05-23T21:30:35.592Z,18.10
2019-05-23T21:33:05.137Z,18.10
2019-05-23T21:35:36.035Z,18.10
2019-05-23T21:38:05.980Z,18.00
2019-05-23T21:40:44.608Z,17.90
2019-05-23T21:43:16.577Z,17.90
2019-05-23T21:45:46.096Z,17.80
2019-05-23T21:48:17.372Z,17.70
2019-05-23T21:50:47.756Z,17.70
2019-05-23T21:53:17.269Z,17.60
2019-05-23T21:55:46.580Z,17.60
2019-05-23T21:58:17.449Z,17.50
2019-05-23T22:01:49.058Z,17.50
2019-05-23T22:07:35.791Z,17.40
2019-05-23T22:10:07.487Z,17.30
2019-05-23T22:12:41.042Z,17.40
2019-05-23T22:15:17.124Z,17.40
2019-05-23T22:17:47.851Z,17.40
2019-05-23T22:20:22.044Z,17.40
2019-05-23T22:22:51.391Z,17.40
2019-05-23T22:25:32.195Z,17.40
2019-05-23T22:28:06.183Z,17.40
2019-05-23T22:30:36.889Z,17.30
2019-05-23T22:33:08.081Z,17.30
2019-05-23T22:35:37.501Z,17.20
2019-05-23T22:38:07.761Z,17.30
2019-05-23T22:40:38.548Z,17.30
2019-05-23T22:43:20.700Z,17.30
2019-05-23T22:45:48.182Z,17.30
2019-05-23T22:48:17.697Z,17.20
2019-05-23T22:50:47.901Z,17.10
2019-05-23T22:53:17.383Z,17.00
2019-05-23T22:55:47.803Z,16.90
2019-05-23T22:58:18.509Z,17.00
2019-05-23T23:00:49.370Z,16.90
2019-05-23T23:03:19.076Z,17.00
2019-05-23T23:05:50.466Z,17.10
2019-05-23T23:08:22.811Z,17.10
2019-05-23T23:10:52.111Z,17.10
2019-05-23T23:16:15.655Z,17.00
2019-05-23T23:18:44.622Z,16.90
2019-05-23T23:21:13.538Z,16.90
2019-05-23T23:23:42.428Z,16.80
2019-05-23T23:26:11.426Z,16.90
2019-05-23T23:28:40.420Z,16.80
2019-05-23T23:31:09.222Z,16.70
2019-05-23T23:33:38.984Z,16.70
2019-05-23T23:36:07.961Z,16.70
2019-05-23T23:38:36.857Z,16.70
2019-05-23T23:41:05.831Z,16.70
2019-05-23T23:43:34.840Z,16.70
2019-05-23T23:46:21.514Z,16.40
2019-05-23T23:49:08.456Z,16.40
2019-05-23T23:51:55.557Z,16.20
2019-05-23T23:54:42.387Z,16.10
2019-05-23T23:57:29.162Z,16.00
